Time;durP1;ratioP1;P1;durP2;ratioP2;P2;SDS_P1;SDS_P2;PMS_P1;PMS_P2;Temp;Humidity;BMP_temperature;BMP_pressure;BME280_temperature;BME280_humidity;BME280_pressure;Samples;Min_cycle;Max_cycle;Signal;HPM_P1;HPM_P2
2022/08/17 00:00:33;;;;;;;9.30;7.13;;;22.40;99.90;;;;;;2108453;28;20040;-74
2022/08/17 00:01:34;;;;;;;8.85;7.65;;;22.40;99.90;;;;;;2107926;28;20047;-72
2022/08/17 00:02:35;;;;;;;8.48;7.68;;;22.40;99.90;;;;;;2106176;28;20490;-72
2022/08/17 00:03:39;;;;;;;8.05;7.30;;;22.40;99.90;;;;;;2106206;28;20386;-72
2022/08/17 00:04:39;;;;;;;10.13;7.70;;;22.40;99.90;;;;;;2106986;28;20032;-72
2022/08/17 00:05:53;;;;;;;9.15;7.43;;;22.40;99.90;;;;;;2098950;28;20029;-74
2022/08/17 00:06:54;;;;;;;8.23;7.30;;;22.40;99.90;;;;;;2100120;28;20110;-74
2022/08/17 00:07:54;;;;;;;8.10;7.30;;;22.30;99.90;;;;;;2107053;28;20062;-74
2022/08/17 00:09:01;;;;;;;8.45;7.43;;;22.30;99.90;;;;;;2107687;28;20049;-74
2022/08/17 00:10:02;;;;;;;8.43;7.63;;;22.30;99.90;;;;;;2106382;28;20430;-75
2022/08/17 00:11:31;;;;;;;8.20;7.40;;;22.30;99.90;;;;;;2106436;28;20024;-75
2022/08/17 00:12:40;;;;;;;8.30;7.38;;;22.30;99.90;;;;;;2096965;28;20119;-74
2022/08/17 00:13:53;;;;;;;9.52;7.47;;;22.30;99.90;;;;;;2086727;28;20116;-74
2022/08/17 00:14:54;;;;;;;8.40;7.50;;;22.20;99.90;;;;;;2100785;28;20035;-74
2022/08/17 00:15:58;;;;;;;9.57;7.30;;;22.20;99.90;;;;;;2106422;28;20505;-74
2022/08/17 00:16:59;;;;;;;7.82;7.13;;;22.20;99.90;;;;;;2109137;28;20241;-74
2022/08/17 00:18:00;;;;;;;8.88;8.07;;;22.20;99.90;;;;;;2100469;28;20008;-74
2022/08/17 00:19:05;;;;;;;7.95;7.20;;;22.20;99.90;;;;;;2099477;28;20067;-74
2022/08/17 00:20:12;;;;;;;7.88;7.18;;;22.20;99.90;;;;;;2108023;28;20032;-74
2022/08/17 00:21:15;;;;;;;9.50;7.63;;;22.20;99.90;;;;;;2106634;28;20521;-73
2022/08/17 00:22:15;;;;;;;9.23;7.53;;;22.20;99.90;;;;;;2099010;28;20039;-73
2022/08/17 00:23:16;;;;;;;8.40;7.45;;;22.10;99.90;;;;;;2106997;28;20119;-73
2022/08/17 00:24:18;;;;;;;8.13;7.32;;;22.20;99.90;;;;;;2097641;28;20437;-73
2022/08/17 00:25:19;;;;;;;8.40;7.60;;;22.10;99.90;;;;;;2097395;28;20032;-73
2022/08/17 00:26:20;;;;;;;8.57;7.60;;;22.10;99.90;;;;;;2098276;28;20037;-74
2022/08/17 00:27:21;;;;;;;8.13;7.38;;;22.10;99.90;;;;;;2098724;28;20510;-73
2022/08/17 00:28:23;;;;;;;8.55;7.75;;;22.00;99.90;;;;;;2114923;28;20402;-73
2022/08/17 00:29:23;;;;;;;8.38;7.57;;;22.00;99.90;;;;;;2106883;28;20066;-73
2022/08/17 00:30:25;;;;;;;8.35;7.57;;;22.00;99.90;;;;;;2106073;28;20106;-72
2022/08/17 00:31:26;;;;;;;8.00;7.20;;;22.00;99.90;;;;;;2106369;28;20035;-74
2022/08/17 00:32:27;;;;;;;9.45;7.07;;;22.00;99.90;;;;;;2108538;28;20105;-72
2022/08/17 00:33:30;;;;;;;10.40;7.70;;;22.00;99.90;;;;;;2108445;28;20094;-72
2022/08/17 00:34:31;;;;;;;7.95;7.10;;;21.90;99.90;;;;;;2098623;28;20090;-73
2022/08/17 00:35:34;;;;;;;8.38;7.03;;;21.90;99.90;;;;;;2100804;28;20032;-73
2022/08/17 00:36:36;;;;;;;8.30;7.40;;;21.90;99.90;;;;;;2109614;28;20052;-73
2022/08/17 00:37:37;;;;;;;7.85;7.15;;;21.90;99.90;;;;;;2090889;28;20376;-73
2022/08/17 00:38:38;;;;;;;8.65;7.07;;;21.90;99.90;;;;;;2098070;28;20097;-72
2022/08/17 00:39:39;;;;;;;8.13;7.32;;;21.90;99.90;;;;;;2107793;28;20024;-72
2022/08/17 00:40:44;;;;;;;8.52;7.20;;;21.90;99.90;;;;;;2106060;28;20027;-72
2022/08/17 00:41:45;;;;;;;8.60;7.30;;;21.80;99.90;;;;;;2106249;28;20063;-74
2022/08/17 00:42:46;;;;;;;7.53;6.82;;;21.80;99.90;;;;;;2097361;28;20024;-73
2022/08/17 00:43:51;;;;;;;8.45;7.63;;;21.80;99.90;;;;;;2105794;28;20477;-73
2022/08/17 00:44:55;;;;;;;8.00;7.18;;;21.80;99.90;;;;;;2107619;28;20051;-73
2022/08/17 00:46:03;;;;;;;7.75;7.05;;;21.80;99.90;;;;;;2106890;28;20118;-73
2022/08/17 00:47:05;;;;;;;9.55;7.50;;;21.70;99.90;;;;;;2099300;28;20078;-72
2022/08/17 00:48:06;;;;;;;7.93;7.22;;;21.70;99.90;;;;;;2098442;28;20028;-72
2022/08/17 00:49:12;;;;;;;7.90;7.13;;;21.70;99.90;;;;;;2105860;28;20061;-72
2022/08/17 00:50:16;;;;;;;7.85;7.13;;;21.70;99.90;;;;;;2106276;28;20020;-73
2022/08/17 00:51:33;;;;;;;7.72;7.00;;;21.70;99.90;;;;;;2106275;28;20050;-73
2022/08/17 00:52:38;;;;;;;7.75;7.05;;;21.70;99.90;;;;;;2106371;28;20091;-73
2022/08/17 00:53:43;;;;;;;7.80;7.10;;;21.70;99.90;;;;;;2100377;28;20027;-74
2022/08/17 00:54:47;;;;;;;9.38;6.97;;;21.70;99.90;;;;;;2098682;28;20031;-73
2022/08/17 00:55:49;;;;;;;7.97;6.70;;;21.60;99.90;;;;;;2107468;28;20390;-73
2022/08/17 00:57:09;;;;;;;7.97;7.18;;;21.60;99.90;;;;;;2108309;28;20116;-72
2022/08/17 00:58:10;;;;;;;8.57;6.90;;;21.60;99.90;;;;;;2099466;28;20028;-73
2022/08/17 00:59:24;;;;;;;8.55;7.25;;;21.60;99.90;;;;;;2099335;28;20074;-73
2022/08/17 01:00:33;;;;;;;8.00;7.30;;;21.60;99.90;;;;;;2108851;28;20020;-72
2022/08/17 01:01:33;;;;;;;8.02;7.22;;;21.60;99.90;;;;;;2108865;28;20089;-73
2022/08/17 01:02:39;;;;;;;7.90;7.10;;;21.60;99.90;;;;;;2106566;28;20545;-72
2022/08/17 01:03:47;;;;;;;8.07;7.28;;;21.60;99.90;;;;;;2107554;28;20021;-72
2022/08/17 01:04:51;;;;;;;7.95;7.25;;;21.60;99.90;;;;;;2107814;28;20067;-73
2022/08/17 01:05:55;;;;;;;7.53;6.82;;;21.60;99.90;;;;;;2105999;28;20066;-72
2022/08/17 01:07:00;;;;;;;8.82;7.28;;;21.50;99.90;;;;;;2106035;28;20444;-73
2022/08/17 01:08:02;;;;;;;7.72;7.03;;;21.50;99.90;;;;;;2090474;28;20543;-73
2022/08/17 01:09:03;;;;;;;7.95;7.07;;;21.50;99.90;;;;;;2092135;28;20029;-72
2022/08/17 01:10:16;;;;;;;7.88;7.07;;;21.50;99.90;;;;;;2090092;28;20060;-72
2022/08/17 01:11:17;;;;;;;9.00;7.60;;;21.50;99.90;;;;;;2101754;28;20124;-72
2022/08/17 01:12:18;;;;;;;7.80;7.10;;;21.50;99.90;;;;;;2108543;28;20062;-72
2022/08/17 01:13:29;;;;;;;8.10;7.40;;;21.50;99.90;;;;;;2099238;28;20170;-72
2022/08/17 01:14:34;;;;;;;8.18;7.38;;;21.50;99.90;;;;;;2101685;28;20094;-72
2022/08/17 01:15:38;;;;;;;8.95;7.47;;;21.50;99.90;;;;;;2109583;28;20051;-73
2022/08/17 01:16:39;;;;;;;10.55;7.45;;;21.50;99.90;;;;;;2109143;28;20418;-71
2022/08/17 01:17:42;;;;;;;8.20;7.40;;;21.50;99.90;;;;;;2109183;28;20027;-72
2022/08/17 01:20:38;;;;;;;8.27;7.43;;;21.40;99.90;;;;;;2093295;28;20116;-72
2022/08/17 01:22:00;;;;;;;8.57;7.50;;;21.40;99.90;;;;;;2102527;28;20024;-74
2022/08/17 01:23:01;;;;;;;9.85;8.20;;;21.40;99.90;;;;;;2106219;28;20024;-73
2022/08/17 01:24:02;;;;;;;8.27;7.50;;;21.40;99.90;;;;;;2109793;28;20076;-73
2022/08/17 01:25:06;;;;;;;9.02;7.40;;;21.40;99.90;;;;;;2107285;28;20115;-73
2022/08/17 01:26:07;;;;;;;8.90;7.80;;;21.40;99.90;;;;;;2096616;28;20419;-73
2022/08/17 01:27:09;;;;;;;7.95;7.25;;;21.40;99.90;;;;;;2096981;28;20035;-74
2022/08/17 01:28:13;;;;;;;9.55;7.88;;;21.40;99.90;;;;;;2105755;28;20158;-72
2022/08/17 01:29:14;;;;;;;8.88;7.47;;;21.40;99.90;;;;;;2091407;28;20025;-73
2022/08/17 01:30:17;;;;;;;8.05;7.30;;;21.40;99.90;;;;;;2091897;28;20148;-74
2022/08/17 01:31:18;;;;;;;9.45;7.45;;;21.40;99.90;;;;;;2106320;28;20486;-73
2022/08/17 01:32:18;;;;;;;8.18;7.38;;;21.40;99.90;;;;;;2106754;28;20031;-72
2022/08/17 01:33:19;;;;;;;7.80;7.10;;;21.40;99.90;;;;;;2106259;28;20035;-73
2022/08/17 01:36:45;;;;;;;9.07;7.60;;;21.30;99.90;;;;;;2105991;28;20474;-73
2022/08/17 01:37:47;;;;;;;9.40;7.53;;;21.30;99.90;;;;;;2105283;28;20070;-74
2022/08/17 01:38:53;;;;;;;10.15;7.90;;;21.20;99.90;;;;;;2105641;28;20043;-72
2022/08/17 01:40:16;;;;;;;8.52;7.63;;;21.20;99.90;;;;;;2105550;28;20050;-72
2022/08/17 01:41:20;;;;;;;9.00;8.10;;;21.20;99.90;;;;;;2108255;28;20027;-72
2022/08/17 01:42:43;;;;;;;8.68;7.68;;;21.20;99.90;;;;;;2108322;28;20105;-74
2022/08/17 01:44:01;;;;;;;9.18;7.90;;;21.10;99.90;;;;;;2105806;28;20027;-73
2022/08/17 01:45:18;;;;;;;8.65;7.78;;;21.10;99.90;;;;;;2105394;28;20405;-73
2022/08/17 01:46:30;;;;;;;9.50;8.10;;;21.00;99.90;;;;;;2105627;28;20055;-73
2022/08/17 01:47:31;;;;;;;9.98;7.60;;;21.00;99.90;;;;;;2105409;28;20032;-74
2022/08/17 01:48:37;;;;;;;8.40;7.65;;;21.00;99.90;;;;;;2106143;28;20114;-75
2022/08/17 01:49:37;;;;;;;8.73;7.93;;;21.00;99.90;;;;;;2106072;28;20032;-74
2022/08/17 01:50:44;;;;;;;9.20;8.30;;;20.90;99.90;;;;;;2099231;28;20033;-73
2022/08/17 01:51:45;;;;;;;8.45;7.75;;;20.90;99.90;;;;;;2091296;28;20867;-73
2022/08/17 01:52:48;;;;;;;8.55;7.75;;;20.90;99.90;;;;;;2097883;28;20062;-73
2022/08/17 01:53:53;;;;;;;9.07;8.18;;;20.90;99.90;;;;;;2106369;28;20024;-74
2022/08/17 01:54:57;;;;;;;8.63;7.82;;;20.90;99.90;;;;;;2097416;28;20028;-74
2022/08/17 01:56:26;;;;;;;8.40;7.57;;;20.80;99.90;;;;;;2097938;28;20047;-75
2022/08/17 01:57:30;;;;;;;8.70;7.80;;;20.80;99.90;;;;;;2080468;28;20037;-74
2022/08/17 01:58:32;;;;;;;8.90;8.00;;;20.80;99.90;;;;;;2103849;28;20052;-74
2022/08/17 01:59:36;;;;;;;8.80;8.00;;;20.80;99.90;;;;;;2089536;28;20063;-73
2022/08/17 02:00:39;;;;;;;11.10;8.32;;;20.80;99.90;;;;;;2098196;28;20024;-74
2022/08/17 02:01:40;;;;;;;8.98;8.18;;;20.80;99.90;;;;;;2106122;28;20053;-73
2022/08/17 02:02:43;;;;;;;8.80;7.90;;;20.70;99.90;;;;;;2107710;28;20028;-73
2022/08/17 02:03:54;;;;;;;8.85;7.95;;;20.80;99.90;;;;;;2107538;28;20450;-72
2022/08/17 02:04:56;;;;;;;8.85;8.05;;;20.80;99.90;;;;;;2100483;28;20029;-71
2022/08/17 02:06:07;;;;;;;8.75;8.00;;;20.70;99.90;;;;;;2098570;28;20124;-72
2022/08/17 02:07:19;;;;;;;9.00;7.90;;;20.70;99.90;;;;;;2099754;28;20044;-72
2022/08/17 02:08:21;;;;;;;8.65;7.85;;;20.70;99.90;;;;;;2105484;28;20055;-72
2022/08/17 02:09:25;;;;;;;9.18;8.27;;;20.70;99.90;;;;;;2107272;28;20024;-72
2022/08/17 02:10:28;;;;;;;9.88;8.07;;;20.70;99.90;;;;;;2107388;28;20333;-72
2022/08/17 02:11:38;;;;;;;9.15;8.25;;;20.70;99.90;;;;;;2107750;28;20056;-72
2022/08/17 02:12:49;;;;;;;10.77;8.60;;;20.70;99.90;;;;;;2110547;28;20031;-73
2022/08/17 02:13:53;;;;;;;8.77;7.93;;;20.70;99.90;;;;;;2092695;28;20055;-72
2022/08/17 02:14:54;;;;;;;9.10;8.20;;;20.60;99.90;;;;;;2097183;28;20063;-72
2022/08/17 02:15:58;;;;;;;9.50;8.40;;;20.60;99.90;;;;;;2105782;28;20377;-73
2022/08/17 02:16:59;;;;;;;9.55;8.63;;;20.60;99.90;;;;;;2108040;28;20076;-72
2022/08/17 02:18:05;;;;;;;9.63;8.70;;;20.60;99.90;;;;;;2109819;28;20059;-72
2022/08/17 02:19:09;;;;;;;8.85;7.93;;;20.60;99.90;;;;;;2098742;28;20027;-73
2022/08/17 02:20:16;;;;;;;9.23;8.32;;;20.60;99.90;;;;;;2101648;28;20059;-73
2022/08/17 02:21:17;;;;;;;9.60;8.70;;;20.60;99.90;;;;;;2107636;28;20508;-73
2022/08/17 02:22:18;;;;;;;10.15;9.15;;;20.60;99.90;;;;;;2109725;28;20494;-73
2022/08/17 02:23:22;;;;;;;10.75;8.82;;;20.60;99.90;;;;;;2107138;28;20028;-71
2022/08/17 02:24:27;;;;;;;10.20;9.05;;;20.60;99.90;;;;;;2106383;28;20026;-73
2022/08/17 02:25:31;;;;;;;9.55;8.50;;;20.60;99.90;;;;;;2097217;28;20052;-72
2022/08/17 02:26:32;;;;;;;9.57;8.68;;;20.60;99.90;;;;;;2104755;28;20040;-72
2022/08/17 02:27:35;;;;;;;10.02;9.02;;;20.60;99.90;;;;;;2108223;28;20032;-72
2022/08/17 02:28:36;;;;;;;11.10;8.48;;;20.50;99.90;;;;;;2090905;28;20521;-72
2022/08/17 02:29:36;;;;;;;9.85;8.85;;;20.50;99.90;;;;;;2097810;28;20028;-72
2022/08/17 02:30:38;;;;;;;10.02;9.13;;;20.50;99.90;;;;;;2108222;28;20036;-73
2022/08/17 02:31:39;;;;;;;10.77;9.07;;;20.50;99.90;;;;;;2107513;28;20514;-73
2022/08/17 02:32:40;;;;;;;10.02;9.02;;;20.50;99.90;;;;;;2106961;28;20020;-73
2022/08/17 02:33:42;;;;;;;9.90;9.00;;;20.50;99.90;;;;;;2109357;28;20036;-73
2022/08/17 02:34:42;;;;;;;9.65;8.82;;;20.40;99.90;;;;;;2108587;28;20031;-72
2022/08/17 02:35:43;;;;;;;10.27;9.23;;;20.40;99.90;;;;;;2106209;28;20063;-72
2022/08/17 02:36:44;;;;;;;9.98;9.07;;;20.40;99.90;;;;;;2106975;28;20035;-72
2022/08/17 02:37:48;;;;;;;9.70;8.73;;;20.40;99.90;;;;;;2098566;28;20027;-72
2022/08/17 02:38:52;;;;;;;9.82;8.82;;;20.30;99.90;;;;;;2098777;28;20056;-73
2022/08/17 02:39:55;;;;;;;10.25;9.23;;;20.30;99.90;;;;;;2089878;28;20032;-72
2022/08/17 02:40:59;;;;;;;10.05;9.00;;;20.30;99.90;;;;;;2091602;28;20032;-72
2022/08/17 02:42:03;;;;;;;9.40;8.60;;;20.30;99.90;;;;;;2109060;28;20028;-72
2022/08/17 02:43:04;;;;;;;10.18;8.75;;;20.30;99.90;;;;;;2108361;28;20028;-72
2022/08/17 02:44:05;;;;;;;10.30;9.27;;;20.30;99.90;;;;;;2097726;28;20059;-72
2022/08/17 02:45:15;;;;;;;9.80;8.93;;;20.30;99.90;;;;;;2097425;28;20070;-72
2022/08/17 02:46:15;;;;;;;10.75;9.40;;;20.30;99.90;;;;;;2097445;28;20028;-72
2022/08/17 02:47:16;;;;;;;11.13;9.45;;;20.20;99.90;;;;;;2097643;28;20025;-72
2022/08/17 02:48:17;;;;;;;10.57;9.45;;;20.20;99.90;;;;;;2105769;28;20030;-72
2022/08/17 02:49:17;;;;;;;11.18;9.95;;;20.20;99.90;;;;;;2105748;28;20016;-72
2022/08/17 02:50:21;;;;;;;11.48;9.70;;;20.20;99.90;;;;;;2107109;28;20402;-73
2022/08/17 02:51:22;;;;;;;10.32;9.43;;;20.20;99.90;;;;;;2106300;28;20032;-72
2022/08/17 02:52:24;;;;;;;10.10;9.10;;;20.20;99.90;;;;;;2105700;28;20065;-73
2022/08/17 02:53:25;;;;;;;10.80;9.70;;;20.10;99.90;;;;;;2105474;28;20039;-73
2022/08/17 02:54:26;;;;;;;11.80;9.70;;;20.10;99.90;;;;;;2105163;28;20043;-73
2022/08/17 02:55:30;;;;;;;10.10;9.20;;;20.10;99.90;;;;;;2105800;28;20043;-73
2022/08/17 02:56:30;;;;;;;10.05;9.15;;;20.10;99.90;;;;;;2106011;28;20032;-73
2022/08/17 02:57:31;;;;;;;10.68;9.57;;;20.10;99.90;;;;;;2105731;28;20095;-73
2022/08/17 02:58:32;;;;;;;10.30;9.32;;;20.10;99.90;;;;;;2105623;28;20043;-73
2022/08/17 02:59:32;;;;;;;10.07;8.98;;;20.10;99.90;;;;;;2105635;28;20062;-73
2022/08/17 03:00:36;;;;;;;10.57;9.30;;;20.10;99.90;;;;;;2105741;28;20084;-73
2022/08/17 03:01:37;;;;;;;11.48;10.32;;;20.10;99.90;;;;;;2105432;28;20427;-73
2022/08/17 03:02:39;;;;;;;10.73;9.73;;;20.00;99.90;;;;;;2105323;28;20043;-73
2022/08/17 03:03:40;;;;;;;10.77;9.52;;;20.00;99.90;;;;;;2104863;28;20024;-73
2022/08/17 03:04:41;;;;;;;10.50;9.50;;;20.00;99.90;;;;;;2104513;28;20050;-73
2022/08/17 03:05:43;;;;;;;10.65;9.65;;;20.00;99.90;;;;;;2105371;28;20111;-72
2022/08/17 03:06:44;;;;;;;10.48;9.15;;;20.00;99.90;;;;;;2105436;28;20035;-73
2022/08/17 03:07:44;;;;;;;10.38;9.38;;;20.00;99.90;;;;;;2105223;28;20043;-73
2022/08/17 03:08:45;;;;;;;10.73;9.40;;;20.00;99.90;;;;;;2105814;28;20028;-73
2022/08/17 03:09:46;;;;;;;10.35;9.40;;;20.00;99.90;;;;;;2105680;28;20028;-72
2022/08/17 03:10:46;;;;;;;10.55;9.45;;;19.90;99.90;;;;;;2105531;28;20085;-73
2022/08/17 03:11:50;;;;;;;10.95;9.85;;;20.00;99.90;;;;;;2105531;28;20032;-73
2022/08/17 03:12:52;;;;;;;11.93;9.82;;;19.90;99.90;;;;;;2105686;28;20062;-73
2022/08/17 03:13:53;;;;;;;10.57;9.52;;;19.90;99.90;;;;;;2106109;28;20036;-73
2022/08/17 03:14:53;;;;;;;11.55;10.30;;;19.90;99.90;;;;;;2105319;28;20036;-73
2022/08/17 03:15:54;;;;;;;13.00;10.18;;;19.90;99.90;;;;;;2105969;28;20016;-72
2022/08/17 03:16:55;;;;;;;11.25;9.60;;;19.90;99.90;;;;;;2105634;28;20102;-73
2022/08/17 03:17:56;;;;;;;10.40;9.40;;;19.90;99.90;;;;;;2105783;28;20094;-73
2022/08/17 03:18:57;;;;;;;10.70;9.70;;;19.90;99.90;;;;;;2106610;28;20103;-73
2022/08/17 03:19:58;;;;;;;10.75;9.65;;;19.90;99.90;;;;;;2106118;28;20028;-72
2022/08/17 03:21:00;;;;;;;10.35;9.35;;;19.80;99.90;;;;;;2105918;28;20115;-73
2022/08/17 03:22:04;;;;;;;10.70;9.70;;;19.80;99.90;;;;;;2105830;28;20021;-72
2022/08/17 03:23:05;;;;;;;10.52;9.43;;;19.80;99.90;;;;;;2105864;28;20016;-73
2022/08/17 03:24:07;;;;;;;10.48;9.48;;;19.80;99.90;;;;;;2105562;28;20027;-72
2022/08/17 03:25:10;;;;;;;11.25;10.02;;;19.80;99.90;;;;;;2104806;28;20486;-74
2022/08/17 03:26:11;;;;;;;12.00;9.70;;;19.80;99.90;;;;;;2104844;28;20040;-73
2022/08/17 03:27:12;;;;;;;10.40;9.30;;;19.80;99.90;;;;;;2104924;28;20390;-74
2022/08/17 03:28:13;;;;;;;11.63;9.90;;;19.80;99.90;;;;;;2096320;28;20025;-73
2022/08/17 03:29:17;;;;;;;10.43;9.48;;;19.70;99.90;;;;;;2107254;28;20047;-74
2022/08/17 03:30:20;;;;;;;10.70;9.65;;;19.70;99.90;;;;;;2105560;28;20032;-74
2022/08/17 03:31:21;;;;;;;11.18;10.07;;;19.70;99.90;;;;;;2105570;28;20036;-74
2022/08/17 03:32:22;;;;;;;10.23;9.23;;;19.70;99.90;;;;;;2105873;28;20027;-74
2022/08/17 03:33:23;;;;;;;10.48;9.48;;;19.70;99.90;;;;;;2106362;28;20020;-73
2022/08/17 03:34:23;;;;;;;10.75;9.75;;;19.60;99.90;;;;;;2106041;28;20031;-74
2022/08/17 03:35:27;;;;;;;10.30;9.30;;;19.60;99.90;;;;;;2106300;28;20036;-73
2022/08/17 03:36:27;;;;;;;11.10;9.77;;;19.60;99.90;;;;;;2106384;28;20393;-73
2022/08/17 03:37:47;;;;;;;10.60;9.50;;;19.60;99.90;;;;;;2108394;28;20054;-73
2022/08/17 03:38:55;;;;;;;10.50;9.45;;;19.60;99.90;;;;;;2106419;28;20032;-73
2022/08/17 03:39:56;;;;;;;10.98;9.88;;;19.60;99.90;;;;;;2089453;28;20629;-73
2022/08/17 03:40:56;;;;;;;10.98;9.88;;;19.60;99.90;;;;;;2097639;28;20107;-73
2022/08/17 03:42:18;;;;;;;10.77;9.68;;;19.60;99.90;;;;;;2106852;28;20359;-74
2022/08/17 03:43:20;;;;;;;11.10;10.00;;;19.50;99.90;;;;;;2106838;28;20520;-73
2022/08/17 03:44:21;;;;;;;11.38;10.20;;;19.50;99.90;;;;;;2106571;28;20498;-74
2022/08/17 03:57:24;;;;;;;11.23;9.98;;;19.40;99.90;;;;;;2106469;28;20486;-73
2022/08/17 03:58:25;;;;;;;10.77;9.68;;;19.40;99.90;;;;;;2106522;28;20024;-73
2022/08/17 03:59:26;;;;;;;10.35;9.25;;;19.40;99.90;;;;;;2106477;28;20027;-73
2022/08/17 04:00:26;;;;;;;11.13;9.55;;;19.40;99.90;;;;;;2106278;28;20039;-73
2022/08/17 04:01:28;;;;;;;11.77;9.88;;;19.40;99.90;;;;;;2106534;28;20044;-74
2022/08/17 04:02:31;;;;;;;10.30;9.30;;;19.40;99.90;;;;;;2106232;28;20032;-74
2022/08/17 04:03:32;;;;;;;10.70;9.70;;;19.40;99.90;;;;;;2106168;28;20032;-74
2022/08/17 04:04:33;;;;;;;10.88;9.80;;;19.40;99.90;;;;;;2106311;28;20041;-75
2022/08/17 04:05:33;;;;;;;10.77;9.57;;;19.50;99.90;;;;;;2106222;28;20032;-75
2022/08/17 04:06:34;;;;;;;10.57;9.55;;;19.50;99.90;;;;;;2106479;28;20054;-74
2022/08/17 04:07:35;;;;;;;10.93;9.85;;;19.50;99.90;;;;;;2106385;28;20902;-74
2022/08/17 04:08:35;;;;;;;10.30;9.30;;;19.50;99.90;;;;;;2106404;28;20682;-73
2022/08/17 04:09:36;;;;;;;10.88;9.52;;;19.50;99.90;;;;;;2106380;28;20060;-74
2022/08/17 04:10:38;;;;;;;10.90;9.70;;;19.50;99.90;;;;;;2106239;28;20024;-74
2022/08/17 04:11:39;;;;;;;12.27;10.23;;;19.50;99.90;;;;;;2106355;28;20078;-74
2022/08/17 04:12:48;;;;;;;10.90;9.80;;;19.50;99.90;;;;;;2106196;28;20050;-74
2022/08/17 04:13:49;;;;;;;10.55;9.43;;;19.50;99.90;;;;;;2106607;28;20482;-73
2022/08/17 04:14:50;;;;;;;10.13;9.07;;;19.50;99.90;;;;;;2105796;28;20028;-73
2022/08/17 04:15:51;;;;;;;12.05;9.27;;;19.50;99.90;;;;;;2106135;28;20511;-73
2022/08/17 04:16:52;;;;;;;12.15;9.63;;;19.50;99.90;;;;;;2105416;28;20107;-73
2022/08/17 04:17:54;;;;;;;10.23;9.23;;;19.50;99.90;;;;;;2097053;28;20074;-73
2022/08/17 04:18:55;;;;;;;10.18;9.27;;;19.60;99.90;;;;;;2105157;28;20535;-74
2022/08/17 04:19:56;;;;;;;10.65;9.40;;;19.60;99.90;;;;;;2106077;28;20065;-74
2022/08/17 04:20:56;;;;;;;10.38;9.10;;;19.60;99.90;;;;;;2105916;28;20024;-73
2022/08/17 04:21:57;;;;;;;10.23;9.10;;;19.60;99.90;;;;;;2106048;28;20023;-74
2022/08/17 04:23:08;;;;;;;10.32;9.23;;;19.60;99.90;;;;;;2105953;28;20034;-73
2022/08/17 04:24:08;;;;;;;11.95;9.80;;;19.60;99.90;;;;;;2105718;28;20378;-73
2022/08/17 04:25:17;;;;;;;10.48;9.38;;;19.70;99.90;;;;;;2105895;28;20063;-73
2022/08/17 04:26:18;;;;;;;11.15;10.02;;;19.70;99.90;;;;;;2106067;28;20016;-73
2022/08/17 04:27:19;;;;;;;11.43;9.35;;;19.70;99.90;;;;;;2105999;28;20089;-74
2022/08/17 04:28:20;;;;;;;10.68;9.57;;;19.70;99.90;;;;;;2106016;28;20074;-75
2022/08/17 04:29:21;;;;;;;10.35;9.25;;;19.70;99.90;;;;;;2105969;28;20028;-74
2022/08/17 04:30:22;;;;;;;11.93;9.63;;;19.80;99.90;;;;;;2105861;28;20061;-74
2022/08/17 04:31:25;;;;;;;9.85;8.93;;;19.80;99.90;;;;;;2105716;28;20027;-74
2022/08/17 04:32:25;;;;;;;10.13;8.95;;;19.80;99.90;;;;;;2107378;28;20107;-74
2022/08/17 04:33:28;;;;;;;11.63;9.30;;;19.80;99.90;;;;;;2112076;28;20016;-74
2022/08/17 04:34:29;;;;;;;10.10;9.10;;;19.90;99.90;;;;;;2113251;28;20027;-74
2022/08/17 04:35:31;;;;;;;10.60;8.85;;;19.90;99.90;;;;;;2115569;28;20028;-74
2022/08/17 04:36:32;;;;;;;10.25;9.20;;;19.90;99.90;;;;;;2106420;28;20037;-74
2022/08/17 04:37:33;;;;;;;10.27;9.23;;;20.00;99.90;;;;;;2106538;28;20051;-73
2022/08/17 04:38:36;;;;;;;10.10;9.20;;;20.10;99.90;;;;;;2109363;28;20024;-73
2022/08/17 04:39:37;;;;;;;10.10;8.68;;;20.10;99.90;;;;;;2106323;28;20098;-74
2022/08/17 04:42:06;;;;;;;9.98;8.98;;;20.20;99.90;;;;;;2107207;28;20020;-74
2022/08/17 04:43:13;;;;;;;10.52;8.65;;;20.30;99.90;;;;;;2106345;28;20019;-74
2022/08/17 04:44:14;;;;;;;9.32;8.40;;;20.40;99.90;;;;;;2098379;28;20028;-75
2022/08/17 04:45:14;;;;;;;9.70;8.68;;;20.40;99.90;;;;;;2105513;28;20032;-74
2022/08/17 04:46:18;;;;;;;10.70;8.48;;;20.50;99.90;;;;;;2106850;28;20056;-74
2022/08/17 04:47:18;;;;;;;9.68;8.65;;;20.50;99.90;;;;;;2106920;28;20122;-73
2022/08/17 04:48:19;;;;;;;10.57;8.70;;;20.60;99.90;;;;;;2106282;28;20153;-74
2022/08/17 04:49:20;;;;;;;10.38;8.63;;;20.70;99.90;;;;;;2106142;28;20406;-74
2022/08/17 04:50:20;;;;;;;9.02;8.20;;;20.70;99.90;;;;;;2106318;28;20039;-73
2022/08/17 04:51:29;;;;;;;9.13;8.32;;;20.80;99.90;;;;;;2106166;28;20036;-73
2022/08/17 04:52:29;;;;;;;9.38;8.35;;;20.90;99.90;;;;;;2105564;28;20055;-75
2022/08/17 04:53:30;;;;;;;9.23;8.13;;;20.90;99.90;;;;;;2105490;28;20672;-74
2022/08/17 04:54:31;;;;;;;9.77;8.20;;;21.00;99.90;;;;;;2105063;28;20032;-74
2022/08/17 04:55:31;;;;;;;9.20;7.95;;;21.00;99.90;;;;;;2096948;28;20048;-75
2022/08/17 04:56:33;;;;;;;9.60;8.60;;;21.00;99.90;;;;;;2105247;28;20024;-74
2022/08/17 04:57:33;;;;;;;8.85;7.95;;;21.00;99.90;;;;;;2105172;28;20035;-74
2022/08/17 04:58:34;;;;;;;8.80;7.95;;;21.00;99.90;;;;;;2104993;28;20083;-73
2022/08/17 04:59:35;;;;;;;9.02;8.10;;;21.00;99.90;;;;;;2105060;28;20020;-73
2022/08/17 05:00:37;;;;;;;9.10;8.18;;;21.00;99.90;;;;;;2105443;28;20023;-73
2022/08/17 05:01:40;;;;;;;9.30;8.13;;;21.00;99.90;;;;;;2105794;28;20028;-73
2022/08/17 05:02:48;;;;;;;9.98;8.52;;;21.00;99.90;;;;;;2105724;28;20028;-73
2022/08/17 05:03:50;;;;;;;9.20;7.75;;;20.90;99.90;;;;;;2105356;28;20032;-72
2022/08/17 05:04:50;;;;;;;9.02;8.10;;;21.00;99.90;;;;;;2105162;28;20034;-73
2022/08/17 05:05:52;;;;;;;9.05;8.20;;;21.00;99.90;;;;;;2105765;28;20023;-75
2022/08/17 05:06:54;;;;;;;9.35;8.27;;;21.00;99.90;;;;;;2105995;28;20020;-75
2022/08/17 05:07:57;;;;;;;10.25;8.30;;;21.00;99.90;;;;;;2105645;28;20062;-74
2022/08/17 05:08:58;;;;;;;9.07;8.27;;;21.00;99.90;;;;;;2105623;28;20107;-74
2022/08/17 05:09:59;;;;;;;8.88;7.82;;;21.00;99.90;;;;;;2106840;28;20023;-73
2022/08/17 05:11:00;;;;;;;8.90;8.00;;;21.10;99.90;;;;;;2106046;28;20295;-73
2022/08/17 05:12:01;;;;;;;9.48;8.40;;;21.20;99.90;;;;;;2106058;28;20035;-74
2022/08/17 05:13:11;;;;;;;8.98;7.97;;;21.50;99.90;;;;;;2105055;28;20165;-72
2022/08/17 05:14:13;;;;;;;11.38;8.18;;;21.80;99.90;;;;;;2104951;28;20503;-73
2022/08/17 05:15:15;;;;;;;8.40;7.60;;;22.10;99.90;;;;;;2105686;28;20020;-73
2022/08/17 05:16:16;;;;;;;9.98;7.90;;;22.40;99.90;;;;;;2105750;28;20040;-73
2022/08/17 05:17:17;;;;;;;8.55;7.65;;;22.80;99.90;;;;;;2105791;28;20031;-73
2022/08/17 05:18:18;;;;;;;8.57;7.68;;;23.00;99.90;;;;;;2105639;28;20035;-73
2022/08/17 05:19:18;;;;;;;9.18;7.60;;;23.30;99.90;;;;;;2104914;28;20052;-75
2022/08/17 05:20:20;;;;;;;8.05;7.28;;;23.60;99.90;;;;;;2105203;28;20539;-72
2022/08/17 05:21:22;;;;;;;8.82;7.40;;;23.80;99.90;;;;;;2105732;28;20112;-73
2022/08/17 05:22:22;;;;;;;8.80;7.50;;;24.00;99.90;;;;;;2104997;28;20108;-74
2022/08/17 05:23:25;;;;;;;8.32;7.53;;;24.20;99.90;;;;;;2106974;28;20031;-73
2022/08/17 05:24:26;;;;;;;8.13;7.20;;;24.40;99.90;;;;;;2106400;28;20081;-73
2022/08/17 05:25:29;;;;;;;9.75;7.50;;;24.50;99.90;;;;;;2105457;28;20742;-73
2022/08/17 05:26:30;;;;;;;10.00;7.50;;;24.70;99.90;;;;;;2105020;28;20040;-74
2022/08/17 05:27:31;;;;;;;8.35;7.55;;;24.80;99.90;;;;;;2105300;28;20537;-73
2022/08/17 05:28:32;;;;;;;10.82;7.90;;;24.90;99.90;;;;;;2105044;28;20032;-73
2022/08/17 05:29:33;;;;;;;8.35;7.40;;;25.00;99.90;;;;;;2108875;28;20028;-73
2022/08/17 05:30:34;;;;;;;8.68;7.45;;;25.10;99.90;;;;;;2108078;28;20027;-73
2022/08/17 05:31:35;;;;;;;9.40;6.97;;;25.20;99.90;;;;;;2106998;28;20050;-73
2022/08/17 05:32:36;;;;;;;9.20;7.50;;;25.30;99.90;;;;;;2107466;28;20065;-74
2022/08/17 05:33:45;;;;;;;9.55;8.13;;;25.40;99.90;;;;;;2100348;28;20120;-73
2022/08/17 05:35:10;;;;;;;10.85;8.48;;;25.40;99.90;;;;;;2107406;28;20028;-73
2022/08/17 05:36:13;;;;;;;9.55;8.35;;;25.20;99.90;;;;;;2106255;28;20059;-74
2022/08/17 05:37:13;;;;;;;11.68;8.23;;;25.10;99.90;;;;;;2105456;28;20027;-74
2022/08/17 05:38:16;;;;;;;8.88;7.85;;;25.00;99.90;;;;;;2105150;28;20533;-73
2022/08/17 05:39:17;;;;;;;11.57;8.38;;;24.90;99.90;;;;;;2106589;28;20062;-75
2022/08/17 05:40:19;;;;;;;9.52;7.72;;;24.90;99.90;;;;;;2107391;28;20032;-74
2022/08/17 05:41:20;;;;;;;10.02;7.45;;;24.90;99.90;;;;;;2106727;28;20028;-74
2022/08/17 05:42:21;;;;;;;10.35;7.63;;;25.10;99.90;;;;;;2106164;28;20028;-74
2022/08/17 05:43:23;;;;;;;9.68;7.75;;;25.10;99.80;;;;;;2106391;28;20028;-74
2022/08/17 05:44:24;;;;;;;10.77;7.72;;;25.20;99.40;;;;;;2107085;28;20051;-74
2022/08/17 05:45:25;;;;;;;13.63;7.60;;;25.20;99.10;;;;;;2107946;28;20040;-75